sensor_id;sensor_type;location;lat;lon;timestamp;P1;durP1;ratioP1;P2;durP2;ratioP2
60726;SDS011;46577;49.004;12.120;2023-09-19T00:01:12;12.83;;;7.30;;
60726;SDS011;46577;49.004;12.120;2023-09-19T00:03:39;13.70;;;7.13;;
60726;SDS011;46577;49.004;12.120;2023-09-19T00:06:07;11.83;;;7.03;;
60726;SDS011;46577;49.004;12.120;2023-09-19T00:08:33;12.30;;;6.53;;
60726;SDS011;46577;49.004;12.120;2023-09-19T00:10:59;15.83;;;7.37;;
60726;SDS011;46577;49.004;12.120;2023-09-19T00:13:27;14.80;;;7.00;;
60726;SDS011;46577;49.004;12.120;2023-09-19T00:15:53;13.97;;;6.80;;
60726;SDS011;46577;49.004;12.120;2023-09-19T00:18:20;14.33;;;7.33;;
60726;SDS011;46577;49.004;12.120;2023-09-19T00:20:46;11.23;;;6.87;;
60726;SDS011;46577;49.004;12.120;2023-09-19T00:23:14;11.53;;;6.80;;
60726;SDS011;46577;49.004;12.120;2023-09-19T00:25:40;17.23;;;6.60;;
60726;SDS011;46577;49.004;12.120;2023-09-19T00:28:07;12.43;;;6.53;;
60726;SDS011;46577;49.004;12.120;2023-09-19T00:30:36;13.90;;;6.90;;
60726;SDS011;46577;49.004;12.120;2023-09-19T00:33:03;13.20;;;6.17;;
60726;SDS011;46577;49.004;12.120;2023-09-19T00:35:31;12.90;;;6.53;;
60726;SDS011;46577;49.004;12.120;2023-09-19T00:37:58;15.70;;;6.23;;
60726;SDS011;46577;49.004;12.120;2023-09-19T00:40:24;13.40;;;7.03;;
60726;SDS011;46577;49.004;12.120;2023-09-19T00:42:51;10.47;;;6.30;;
60726;SDS011;46577;49.004;12.120;2023-09-19T00:45:18;13.43;;;7.10;;
60726;SDS011;46577;49.004;12.120;2023-09-19T00:47:46;10.47;;;6.47;;
60726;SDS011;46577;49.004;12.120;2023-09-19T00:50:13;11.80;;;6.57;;
60726;SDS011;46577;49.004;12.120;2023-09-19T00:52:42;13.20;;;5.23;;
60726;SDS011;46577;49.004;12.120;2023-09-19T00:55:09;12.33;;;5.70;;
60726;SDS011;46577;49.004;12.120;2023-09-19T00:57:36;12.87;;;6.73;;
60726;SDS011;46577;49.004;12.120;2023-09-19T01:00:04;16.03;;;6.60;;
60726;SDS011;46577;49.004;12.120;2023-09-19T01:02:32;7.30;;;5.60;;
60726;SDS011;46577;49.004;12.120;2023-09-19T01:04:58;10.83;;;6.30;;
60726;SDS011;46577;49.004;12.120;2023-09-19T01:07:29;8.80;;;5.80;;
60726;SDS011;46577;49.004;12.120;2023-09-19T01:09:56;7.63;;;4.67;;
60726;SDS011;46577;49.004;12.120;2023-09-19T01:13:09;5.57;;;4.60;;
60726;SDS011;46577;49.004;12.120;2023-09-19T01:15:22;7.00;;;4.73;;
60726;SDS011;46577;49.004;12.120;2023-09-19T01:18:08;13.17;;;4.60;;
60726;SDS011;46577;49.004;12.120;2023-09-19T01:21:37;6.90;;;4.87;;
60726;SDS011;46577;49.004;12.120;2023-09-19T01:31:09;10.20;;;4.70;;
60726;SDS011;46577;49.004;12.120;2023-09-19T01:33:54;8.07;;;4.60;;
60726;SDS011;46577;49.004;12.120;2023-09-19T01:36:22;12.50;;;5.60;;
60726;SDS011;46577;49.004;12.120;2023-09-19T01:38:49;11.07;;;6.10;;
60726;SDS011;46577;49.004;12.120;2023-09-19T01:41:15;10.57;;;6.03;;
60726;SDS011;46577;49.004;12.120;2023-09-19T01:43:44;10.47;;;5.40;;
60726;SDS011;46577;49.004;12.120;2023-09-19T01:48:51;10.17;;;4.50;;
60726;SDS011;46577;49.004;12.120;2023-09-19T01:51:21;18.83;;;5.77;;
60726;SDS011;46577;49.004;12.120;2023-09-19T01:54:00;10.80;;;4.53;;
60726;SDS011;46577;49.004;12.120;2023-09-19T01:56:30;6.10;;;4.03;;
60726;SDS011;46577;49.004;12.120;2023-09-19T01:58:59;7.50;;;3.90;;
60726;SDS011;46577;49.004;12.120;2023-09-19T02:01:29;17.97;;;4.50;;
60726;SDS011;46577;49.004;12.120;2023-09-19T02:03:55;6.87;;;4.50;;
60726;SDS011;46577;49.004;12.120;2023-09-19T02:06:21;6.83;;;4.10;;
60726;SDS011;46577;49.004;12.120;2023-09-19T02:08:47;15.10;;;4.53;;
60726;SDS011;46577;49.004;12.120;2023-09-19T02:11:15;6.60;;;4.30;;
60726;SDS011;46577;49.004;12.120;2023-09-19T02:13:41;6.97;;;4.50;;
60726;SDS011;46577;49.004;12.120;2023-09-19T02:16:07;9.37;;;4.37;;
60726;SDS011;46577;49.004;12.120;2023-09-19T02:18:35;7.13;;;3.03;;
60726;SDS011;46577;49.004;12.120;2023-09-19T02:21:02;6.70;;;3.40;;
60726;SDS011;46577;49.004;12.120;2023-09-19T02:23:29;10.50;;;3.23;;
60726;SDS011;46577;49.004;12.120;2023-09-19T02:25:55;4.13;;;2.90;;
60726;SDS011;46577;49.004;12.120;2023-09-19T02:28:25;10.80;;;4.10;;
60726;SDS011;46577;49.004;12.120;2023-09-19T02:30:55;4.97;;;3.27;;
60726;SDS011;46577;49.004;12.120;2023-09-19T02:33:21;8.33;;;3.57;;
60726;SDS011;46577;49.004;12.120;2023-09-19T02:35:47;9.13;;;3.70;;
60726;SDS011;46577;49.004;12.120;2023-09-19T02:38:13;6.13;;;3.90;;
60726;SDS011;46577;49.004;12.120;2023-09-19T02:40:45;5.07;;;3.40;;
60726;SDS011;46577;49.004;12.120;2023-09-19T02:43:11;5.40;;;3.03;;
60726;SDS011;46577;49.004;12.120;2023-09-19T02:45:37;7.13;;;3.83;;
60726;SDS011;46577;49.004;12.120;2023-09-19T02:48:04;20.47;;;3.90;;
60726;SDS011;46577;49.004;12.120;2023-09-19T02:50:30;8.63;;;5.00;;
60726;SDS011;46577;49.004;12.120;2023-09-19T02:52:56;11.23;;;4.30;;
60726;SDS011;46577;49.004;12.120;2023-09-19T02:55:22;7.43;;;4.20;;
60726;SDS011;46577;49.004;12.120;2023-09-19T02:57:48;13.47;;;4.50;;
60726;SDS011;46577;49.004;12.120;2023-09-19T03:00:15;6.17;;;3.93;;
60726;SDS011;46577;49.004;12.120;2023-09-19T03:02:41;14.17;;;4.20;;
60726;SDS011;46577;49.004;12.120;2023-09-19T03:05:07;6.80;;;4.30;;
60726;SDS011;46577;49.004;12.120;2023-09-19T03:07:36;7.27;;;4.07;;
60726;SDS011;46577;49.004;12.120;2023-09-19T03:10:03;8.10;;;3.80;;
60726;SDS011;46577;49.004;12.120;2023-09-19T03:12:30;8.20;;;3.27;;
60726;SDS011;46577;49.004;12.120;2023-09-19T03:14:56;8.43;;;3.40;;
60726;SDS011;46577;49.004;12.120;2023-09-19T03:17:24;4.87;;;3.20;;
60726;SDS011;46577;49.004;12.120;2023-09-19T03:19:50;7.43;;;3.50;;
60726;SDS011;46577;49.004;12.120;2023-09-19T03:22:16;3.87;;;2.93;;
60726;SDS011;46577;49.004;12.120;2023-09-19T03:24:42;6.77;;;3.23;;
60726;SDS011;46577;49.004;12.120;2023-09-19T03:27:09;10.47;;;3.73;;
60726;SDS011;46577;49.004;12.120;2023-09-19T03:29:35;5.17;;;3.50;;
60726;SDS011;46577;49.004;12.120;2023-09-19T03:32:01;10.13;;;3.50;;
60726;SDS011;46577;49.004;12.120;2023-09-19T03:34:28;8.73;;;3.20;;
60726;SDS011;46577;49.004;12.120;2023-09-19T03:36:54;5.10;;;2.83;;
60726;SDS011;46577;49.004;12.120;2023-09-19T03:39:20;5.33;;;3.20;;
60726;SDS011;46577;49.004;12.120;2023-09-19T03:41:46;7.83;;;2.90;;
60726;SDS011;46577;49.004;12.120;2023-09-19T03:44:13;7.60;;;3.07;;
60726;SDS011;46577;49.004;12.120;2023-09-19T03:46:40;5.10;;;2.60;;
60726;SDS011;46577;49.004;12.120;2023-09-19T03:49:06;4.13;;;2.53;;
60726;SDS011;46577;49.004;12.120;2023-09-19T03:51:33;3.30;;;2.80;;
60726;SDS011;46577;49.004;12.120;2023-09-19T03:53:59;6.77;;;2.83;;
60726;SDS011;46577;49.004;12.120;2023-09-19T03:56:25;6.60;;;2.73;;
60726;SDS011;46577;49.004;12.120;2023-09-19T03:58:51;5.10;;;2.90;;
60726;SDS011;46577;49.004;12.120;2023-09-19T04:01:17;6.60;;;2.47;;
60726;SDS011;46577;49.004;12.120;2023-09-19T04:03:43;5.67;;;3.00;;
60726;SDS011;46577;49.004;12.120;2023-09-19T04:06:15;3.10;;;2.17;;
60726;SDS011;46577;49.004;12.120;2023-09-19T04:08:41;6.07;;;2.90;;
60726;SDS011;46577;49.004;12.120;2023-09-19T04:11:08;4.70;;;2.10;;
60726;SDS011;46577;49.004;12.120;2023-09-19T04:13:34;10.97;;;2.67;;
60726;SDS011;46577;49.004;12.120;2023-09-19T04:16:01;4.47;;;2.43;;
60726;SDS011;46577;49.004;12.120;2023-09-19T04:18:28;3.13;;;2.30;;
60726;SDS011;46577;49.004;12.120;2023-09-19T04:20:57;5.33;;;2.27;;
60726;SDS011;46577;49.004;12.120;2023-09-19T04:23:23;2.27;;;2.03;;
60726;SDS011;46577;49.004;12.120;2023-09-19T04:25:49;5.13;;;2.70;;
60726;SDS011;46577;49.004;12.120;2023-09-19T04:28:16;4.80;;;2.23;;
60726;SDS011;46577;49.004;12.120;2023-09-19T04:30:42;3.43;;;2.40;;
60726;SDS011;46577;49.004;12.120;2023-09-19T04:33:08;8.37;;;2.73;;
60726;SDS011;46577;49.004;12.120;2023-09-19T04:35:34;4.73;;;2.20;;
60726;SDS011;46577;49.004;12.120;2023-09-19T04:38:00;2.30;;;2.00;;
60726;SDS011;46577;49.004;12.120;2023-09-19T04:40:28;3.43;;;2.43;;
60726;SDS011;46577;49.004;12.120;2023-09-19T04:42:55;3.77;;;2.17;;
60726;SDS011;46577;49.004;12.120;2023-09-19T04:45:21;4.73;;;2.00;;
60726;SDS011;46577;49.004;12.120;2023-09-19T04:47:47;6.53;;;2.27;;
60726;SDS011;46577;49.004;12.120;2023-09-19T04:50:13;3.50;;;2.17;;
60726;SDS011;46577;49.004;12.120;2023-09-19T04:52:43;7.13;;;2.30;;
60726;SDS011;46577;49.004;12.120;2023-09-19T04:55:15;3.80;;;2.20;;
60726;SDS011;46577;49.004;12.120;2023-09-19T04:57:41;5.10;;;2.10;;
60726;SDS011;46577;49.004;12.120;2023-09-19T05:00:08;4.07;;;2.27;;
60726;SDS011;46577;49.004;12.120;2023-09-19T05:02:39;2.80;;;2.10;;
60726;SDS011;46577;49.004;12.120;2023-09-19T05:05:05;3.80;;;2.10;;
60726;SDS011;46577;49.004;12.120;2023-09-19T05:07:32;3.87;;;2.40;;
60726;SDS011;46577;49.004;12.120;2023-09-19T05:09:59;6.53;;;2.67;;
60726;SDS011;46577;49.004;12.120;2023-09-19T05:12:26;7.70;;;2.20;;
60726;SDS011;46577;49.004;12.120;2023-09-19T05:14:52;8.70;;;2.30;;
60726;SDS011;46577;49.004;12.120;2023-09-19T05:17:18;2.00;;;1.50;;
60726;SDS011;46577;49.004;12.120;2023-09-19T05:19:44;12.10;;;2.30;;
60726;SDS011;46577;49.004;12.120;2023-09-19T05:22:11;5.00;;;2.13;;
60726;SDS011;46577;49.004;12.120;2023-09-19T05:24:37;4.83;;;1.73;;
60726;SDS011;46577;49.004;12.120;2023-09-19T05:27:04;3.33;;;1.90;;
60726;SDS011;46577;49.004;12.120;2023-09-19T05:29:32;4.83;;;2.10;;
60726;SDS011;46577;49.004;12.120;2023-09-19T05:31:58;3.27;;;1.53;;
60726;SDS011;46577;49.004;12.120;2023-09-19T05:34:24;2.90;;;1.57;;
60726;SDS011;46577;49.004;12.120;2023-09-19T05:36:55;3.33;;;1.40;;
60726;SDS011;46577;49.004;12.120;2023-09-19T05:39:21;8.00;;;2.00;;
60726;SDS011;46577;49.004;12.120;2023-09-19T05:41:48;3.20;;;1.80;;
60726;SDS011;46577;49.004;12.120;2023-09-19T05:44:14;8.23;;;1.40;;
60726;SDS011;46577;49.004;12.120;2023-09-19T05:46:40;8.63;;;1.57;;
60726;SDS011;46577;49.004;12.120;2023-09-19T05:49:05;9.87;;;1.80;;
60726;SDS011;46577;49.004;12.120;2023-09-19T05:51:31;4.40;;;1.80;;
60726;SDS011;46577;49.004;12.120;2023-09-19T05:53:57;3.03;;;1.50;;
60726;SDS011;46577;49.004;12.120;2023-09-19T05:56:23;2.00;;;1.30;;
60726;SDS011;46577;49.004;12.120;2023-09-19T05:58:50;1.80;;;1.20;;
60726;SDS011;46577;49.004;12.120;2023-09-19T06:01:18;7.30;;;1.30;;
60726;SDS011;46577;49.004;12.120;2023-09-19T06:03:44;4.63;;;1.60;;
60726;SDS011;46577;49.004;12.120;2023-09-19T06:06:10;2.07;;;1.47;;
60726;SDS011;46577;49.004;12.120;2023-09-19T06:08:36;3.23;;;1.50;;
60726;SDS011;46577;49.004;12.120;2023-09-19T06:11:02;3.97;;;1.03;;
60726;SDS011;46577;49.004;12.120;2023-09-19T06:13:30;1.53;;;1.37;;
60726;SDS011;46577;49.004;12.120;2023-09-19T06:15:58;6.10;;;1.37;;
60726;SDS011;46577;49.004;12.120;2023-09-19T06:18:29;2.30;;;1.30;;
60726;SDS011;46577;49.004;12.120;2023-09-19T06:20:58;5.80;;;1.27;;
60726;SDS011;46577;49.004;12.120;2023-09-19T06:23:24;2.93;;;1.07;;
60726;SDS011;46577;49.004;12.120;2023-09-19T06:25:52;1.37;;;0.97;;
60726;SDS011;46577;49.004;12.120;2023-09-19T06:28:21;3.17;;;1.30;;
60726;SDS011;46577;49.004;12.120;2023-09-19T06:30:50;1.53;;;1.07;;
60726;SDS011;46577;49.004;12.120;2023-09-19T06:33:16;5.00;;;1.10;;
60726;SDS011;46577;49.004;12.120;2023-09-19T06:35:43;1.43;;;1.03;;
60726;SDS011;46577;49.004;12.120;2023-09-19T06:38:09;2.00;;;0.83;;
60726;SDS011;46577;49.004;12.120;2023-09-19T06:40:38;5.30;;;0.90;;
60726;SDS011;46577;49.004;12.120;2023-09-19T06:43:05;5.83;;;1.60;;
60726;SDS011;46577;49.004;12.120;2023-09-19T06:45:31;1.70;;;0.97;;
60726;SDS011;46577;49.004;12.120;2023-09-19T06:47:57;1.50;;;1.00;;
60726;SDS011;46577;49.004;12.120;2023-09-19T06:50:25;4.87;;;0.93;;
60726;SDS011;46577;49.004;12.120;2023-09-19T06:52:53;5.63;;;1.27;;
60726;SDS011;46577;49.004;12.120;2023-09-19T06:55:20;2.63;;;1.47;;
60726;SDS011;46577;49.004;12.120;2023-09-19T06:57:49;2.20;;;1.10;;
60726;SDS011;46577;49.004;12.120;2023-09-19T07:00:15;2.03;;;1.00;;
60726;SDS011;46577;49.004;12.120;2023-09-19T07:05:22;1.93;;;1.33;;
60726;SDS011;46577;49.004;12.120;2023-09-19T07:07:48;3.47;;;1.17;;
60726;SDS011;46577;49.004;12.120;2023-09-19T07:10:14;1.97;;;1.03;;
60726;SDS011;46577;49.004;12.120;2023-09-19T07:12:40;1.57;;;1.03;;
60726;SDS011;46577;49.004;12.120;2023-09-19T07:15:07;1.83;;;1.10;;
60726;SDS011;46577;49.004;12.120;2023-09-19T07:17:33;2.90;;;0.93;;
60726;SDS011;46577;49.004;12.120;2023-09-19T07:20:00;3.73;;;1.23;;
60726;SDS011;46577;49.004;12.120;2023-09-19T07:22:26;4.33;;;1.10;;
60726;SDS011;46577;49.004;12.120;2023-09-19T07:24:52;1.40;;;1.30;;
60726;SDS011;46577;49.004;12.120;2023-09-19T07:27:19;2.73;;;1.30;;
60726;SDS011;46577;49.004;12.120;2023-09-19T07:29:45;1.33;;;0.90;;
60726;SDS011;46577;49.004;12.120;2023-09-19T07:32:11;2.20;;;1.00;;
60726;SDS011;46577;49.004;12.120;2023-09-19T07:34:38;2.53;;;1.13;;
60726;SDS011;46577;49.004;12.120;2023-09-19T07:37:05;4.63;;;0.80;;
60726;SDS011;46577;49.004;12.120;2023-09-19T07:39:33;3.60;;;1.00;;
60726;SDS011;46577;49.004;12.120;2023-09-19T07:41:59;3.53;;;0.73;;
60726;SDS011;46577;49.004;12.120;2023-09-19T07:44:25;3.00;;;0.80;;
60726;SDS011;46577;49.004;12.120;2023-09-19T07:46:51;1.37;;;0.90;;
60726;SDS011;46577;49.004;12.120;2023-09-19T07:49:18;1.83;;;0.80;;
60726;SDS011;46577;49.004;12.120;2023-09-19T07:51:44;0.80;;;0.80;;
60726;SDS011;46577;49.004;12.120;2023-09-19T07:54:13;1.27;;;0.70;;
60726;SDS011;46577;49.004;12.120;2023-09-19T07:56:40;4.83;;;0.90;;
60726;SDS011;46577;49.004;12.120;2023-09-19T07:59:06;4.60;;;1.10;;
60726;SDS011;46577;49.004;12.120;2023-09-19T08:01:33;2.90;;;1.10;;
60726;SDS011;46577;49.004;12.120;2023-09-19T08:04:00;3.90;;;0.97;;
60726;SDS011;46577;49.004;12.120;2023-09-19T08:06:26;2.40;;;1.10;;
60726;SDS011;46577;49.004;12.120;2023-09-19T08:08:54;2.50;;;1.10;;
60726;SDS011;46577;49.004;12.120;2023-09-19T08:11:22;1.80;;;1.07;;
60726;SDS011;46577;49.004;12.120;2023-09-19T08:13:49;2.43;;;1.30;;
60726;SDS011;46577;49.004;12.120;2023-09-19T08:16:15;1.37;;;1.17;;
60726;SDS011;46577;49.004;12.120;2023-09-19T08:18:43;1.47;;;1.33;;
60726;SDS011;46577;49.004;12.120;2023-09-19T08:21:12;1.30;;;1.13;;
60726;SDS011;46577;49.004;12.120;2023-09-19T08:23:39;1.27;;;1.10;;
60726;SDS011;46577;49.004;12.120;2023-09-19T08:26:05;2.53;;;1.10;;
60726;SDS011;46577;49.004;12.120;2023-09-19T08:28:35;4.13;;;1.33;;
60726;SDS011;46577;49.004;12.120;2023-09-19T08:31:04;3.30;;;1.10;;
60726;SDS011;46577;49.004;12.120;2023-09-19T08:33:34;2.00;;;1.10;;
60726;SDS011;46577;49.004;12.120;2023-09-19T08:36:03;3.07;;;1.00;;
60726;SDS011;46577;49.004;12.120;2023-09-19T08:38:33;2.17;;;1.13;;
60726;SDS011;46577;49.004;12.120;2023-09-19T08:41:00;2.23;;;1.03;;
60726;SDS011;46577;49.004;12.120;2023-09-19T08:43:27;2.20;;;0.93;;
60726;SDS011;46577;49.004;12.120;2023-09-19T08:46:15;1.27;;;1.17;;
60726;SDS011;46577;49.004;12.120;2023-09-19T08:48:40;1.37;;;1.00;;
60726;SDS011;46577;49.004;12.120;2023-09-19T08:51:10;2.60;;;1.17;;
60726;SDS011;46577;49.004;12.120;2023-09-19T08:56:11;2.90;;;1.17;;
60726;SDS011;46577;49.004;12.120;2023-09-19T08:58:45;1.63;;;1.10;;
60726;SDS011;46577;49.004;12.120;2023-09-19T09:01:13;2.27;;;1.03;;
60726;SDS011;46577;49.004;12.120;2023-09-19T09:03:39;1.83;;;0.93;;
60726;SDS011;46577;49.004;12.120;2023-09-19T09:06:07;1.80;;;1.00;;
60726;SDS011;46577;49.004;12.120;2023-09-19T09:08:38;9.83;;;1.17;;
60726;SDS011;46577;49.004;12.120;2023-09-19T09:11:04;4.77;;;1.70;;
60726;SDS011;46577;49.004;12.120;2023-09-19T09:13:32;3.97;;;1.00;;
60726;SDS011;46577;49.004;12.120;2023-09-19T09:16:00;7.80;;;1.20;;
60726;SDS011;46577;49.004;12.120;2023-09-19T09:18:26;1.60;;;1.10;;
60726;SDS011;46577;49.004;12.120;2023-09-19T09:20:52;2.80;;;1.13;;
60726;SDS011;46577;49.004;12.120;2023-09-19T09:23:18;2.30;;;1.23;;
60726;SDS011;46577;49.004;12.120;2023-09-19T09:25:50;7.30;;;1.40;;
60726;SDS011;46577;49.004;12.120;2023-09-19T09:28:22;1.47;;;1.07;;
60726;SDS011;46577;49.004;12.120;2023-09-19T09:30:48;3.33;;;1.37;;
60726;SDS011;46577;49.004;12.120;2023-09-19T09:33:15;8.57;;;1.10;;
60726;SDS011;46577;49.004;12.120;2023-09-19T09:35:48;6.40;;;1.20;;
60726;SDS011;46577;49.004;12.120;2023-09-19T09:38:20;3.73;;;1.67;;
60726;SDS011;46577;49.004;12.120;2023-09-19T09:40:51;2.50;;;1.37;;
60726;SDS011;46577;49.004;12.120;2023-09-19T09:43:30;4.20;;;1.47;;
60726;SDS011;46577;49.004;12.120;2023-09-19T09:46:19;2.33;;;1.30;;
60726;SDS011;46577;49.004;12.120;2023-09-19T09:54:14;4.93;;;1.10;;
60726;SDS011;46577;49.004;12.120;2023-09-19T09:56:51;1.43;;;0.97;;
60726;SDS011;46577;49.004;12.120;2023-09-19T09:59:19;1.20;;;1.10;;
60726;SDS011;46577;49.004;12.120;2023-09-19T10:01:48;2.00;;;1.20;;
60726;SDS011;46577;49.004;12.120;2023-09-19T10:04:28;3.47;;;1.60;;
60726;SDS011;46577;49.004;12.120;2023-09-19T10:07:01;1.43;;;1.20;;
60726;SDS011;46577;49.004;12.120;2023-09-19T10:09:44;2.83;;;1.30;;
60726;SDS011;46577;49.004;12.120;2023-09-19T10:12:12;1.40;;;1.10;;
60726;SDS011;46577;49.004;12.120;2023-09-19T10:14:38;1.30;;;1.20;;
60726;SDS011;46577;49.004;12.120;2023-09-19T10:17:07;1.90;;;1.07;;
60726;SDS011;46577;49.004;12.120;2023-09-19T10:22:11;2.70;;;1.40;;
60726;SDS011;46577;49.004;12.120;2023-09-19T10:24:39;1.70;;;1.10;;
60726;SDS011;46577;49.004;12.120;2023-09-19T10:27:06;2.20;;;1.40;;
60726;SDS011;46577;49.004;12.120;2023-09-19T10:29:36;2.83;;;1.10;;
60726;SDS011;46577;49.004;12.120;2023-09-19T10:32:05;6.10;;;1.40;;
60726;SDS011;46577;49.004;12.120;2023-09-19T10:34:34;1.67;;;1.57;;
60726;SDS011;46577;49.004;12.120;2023-09-19T10:37:01;7.53;;;1.57;;
60726;SDS011;46577;49.004;12.120;2023-09-19T10:39:30;2.23;;;1.30;;
60726;SDS011;46577;49.004;12.120;2023-09-19T10:41:57;4.77;;;1.10;;
60726;SDS011;46577;49.004;12.120;2023-09-19T10:44:30;2.97;;;1.40;;
60726;SDS011;46577;49.004;12.120;2023-09-19T10:46:57;2.33;;;1.30;;
60726;SDS011;46577;49.004;12.120;2023-09-19T10:49:24;1.53;;;1.00;;
60726;SDS011;46577;49.004;12.120;2023-09-19T10:51:52;3.20;;;1.50;;
60726;SDS011;46577;49.004;12.120;2023-09-19T10:54:23;3.03;;;1.43;;
60726;SDS011;46577;49.004;12.120;2023-09-19T10:56:51;5.93;;;1.40;;
60726;SDS011;46577;49.004;12.120;2023-09-19T10:59:19;3.60;;;1.13;;
60726;SDS011;46577;49.004;12.120;2023-09-19T11:01:49;2.13;;;1.23;;
60726;SDS011;46577;49.004;12.120;2023-09-19T11:04:23;1.90;;;1.50;;
60726;SDS011;46577;49.004;12.120;2023-09-19T11:09:46;1.40;;;1.00;;
60726;SDS011;46577;49.004;12.120;2023-09-19T11:14:50;5.70;;;1.93;;
60726;SDS011;46577;49.004;12.120;2023-09-19T11:28:37;3.63;;;1.30;;
60726;SDS011;46577;49.004;12.120;2023-09-19T11:30:49;3.57;;;1.23;;
60726;SDS011;46577;49.004;12.120;2023-09-19T11:33:19;1.07;;;0.97;;
60726;SDS011;46577;49.004;12.120;2023-09-19T11:36:03;0.90;;;0.80;;
60726;SDS011;46577;49.004;12.120;2023-09-19T11:46:28;3.70;;;1.23;;
60726;SDS011;46577;49.004;12.120;2023-09-19T11:48:55;1.53;;;0.80;;
60726;SDS011;46577;49.004;12.120;2023-09-19T11:51:42;8.53;;;1.10;;
60726;SDS011;46577;49.004;12.120;2023-09-19T11:54:12;2.43;;;1.20;;
60726;SDS011;46577;49.004;12.120;2023-09-19T11:56:43;2.80;;;0.93;;
60726;SDS011;46577;49.004;12.120;2023-09-19T11:59:09;6.13;;;1.27;;
60726;SDS011;46577;49.004;12.120;2023-09-19T12:01:35;1.70;;;1.10;;
60726;SDS011;46577;49.004;12.120;2023-09-19T12:04:05;1.77;;;1.20;;
60726;SDS011;46577;49.004;12.120;2023-09-19T12:06:33;1.67;;;1.07;;
60726;SDS011;46577;49.004;12.120;2023-09-19T12:09:01;3.43;;;1.23;;
60726;SDS011;46577;49.004;12.120;2023-09-19T12:11:32;1.13;;;1.03;;
60726;SDS011;46577;49.004;12.120;2023-09-19T12:13:58;3.53;;;1.27;;
60726;SDS011;46577;49.004;12.120;2023-09-19T12:16:26;4.80;;;1.13;;
60726;SDS011;46577;49.004;12.120;2023-09-19T12:18:55;1.67;;;1.00;;
60726;SDS011;46577;49.004;12.120;2023-09-19T12:21:26;1.60;;;0.97;;
60726;SDS011;46577;49.004;12.120;2023-09-19T12:24:06;1.13;;;0.73;;
60726;SDS011;46577;49.004;12.120;2023-09-19T12:26:41;0.80;;;0.80;;
60726;SDS011;46577;49.004;12.120;2023-09-19T12:29:14;1.20;;;0.80;;
60726;SDS011;46577;49.004;12.120;2023-09-19T12:31:55;2.20;;;1.40;;
60726;SDS011;46577;49.004;12.120;2023-09-19T12:34:26;1.27;;;1.00;;
60726;SDS011;46577;49.004;12.120;2023-09-19T12:39:43;1.63;;;1.03;;
60726;SDS011;46577;49.004;12.120;2023-09-19T12:42:18;2.80;;;1.70;;
60726;SDS011;46577;49.004;12.120;2023-09-19T12:44:45;2.73;;;1.10;;
60726;SDS011;46577;49.004;12.120;2023-09-19T12:47:18;1.40;;;1.10;;
60726;SDS011;46577;49.004;12.120;2023-09-19T12:52:46;1.30;;;0.93;;
60726;SDS011;46577;49.004;12.120;2023-09-19T12:55:20;2.23;;;1.40;;
60726;SDS011;46577;49.004;12.120;2023-09-19T12:58:03;3.00;;;1.30;;
60726;SDS011;46577;49.004;12.120;2023-09-19T13:03:12;2.70;;;1.50;;
60726;SDS011;46577;49.004;12.120;2023-09-19T13:05:47;3.37;;;0.90;;
60726;SDS011;46577;49.004;12.120;2023-09-19T13:08:26;1.50;;;1.20;;
60726;SDS011;46577;49.004;12.120;2023-09-19T13:13:38;1.80;;;1.27;;
60726;SDS011;46577;49.004;12.120;2023-09-19T13:16:04;1.53;;;1.20;;
60726;SDS011;46577;49.004;12.120;2023-09-19T13:18:54;3.53;;;1.30;;
60726;SDS011;46577;49.004;12.120;2023-09-19T13:21:34;1.83;;;0.90;;
60726;SDS011;46577;49.004;12.120;2023-09-19T13:24:20;1.67;;;1.10;;
60726;SDS011;46577;49.004;12.120;2023-09-19T13:26:47;4.40;;;1.30;;
60726;SDS011;46577;49.004;12.120;2023-09-19T13:29:13;1.43;;;1.10;;
60726;SDS011;46577;49.004;12.120;2023-09-19T13:31:45;3.57;;;1.00;;
60726;SDS011;46577;49.004;12.120;2023-09-19T13:34:11;2.50;;;1.10;;
60726;SDS011;46577;49.004;12.120;2023-09-19T13:36:39;2.03;;;1.10;;
60726;SDS011;46577;49.004;12.120;2023-09-19T13:39:05;1.97;;;1.17;;
60726;SDS011;46577;49.004;12.120;2023-09-19T13:41:32;1.30;;;1.10;;
60726;SDS011;46577;49.004;12.120;2023-09-19T13:43:58;2.73;;;1.50;;
60726;SDS011;46577;49.004;12.120;2023-09-19T13:46:24;2.20;;;1.43;;
60726;SDS011;46577;49.004;12.120;2023-09-19T13:48:51;2.03;;;1.30;;
60726;SDS011;46577;49.004;12.120;2023-09-19T13:51:19;1.60;;;1.50;;
60726;SDS011;46577;49.004;12.120;2023-09-19T13:53:48;2.53;;;1.40;;
60726;SDS011;46577;49.004;12.120;2023-09-19T13:56:15;1.53;;;1.20;;
60726;SDS011;46577;49.004;12.120;2023-09-19T13:58:41;4.63;;;1.40;;
60726;SDS011;46577;49.004;12.120;2023-09-19T14:01:07;1.40;;;1.13;;
60726;SDS011;46577;49.004;12.120;2023-09-19T14:03:41;1.30;;;1.07;;
60726;SDS011;46577;49.004;12.120;2023-09-19T14:06:12;3.77;;;1.30;;
60726;SDS011;46577;49.004;12.120;2023-09-19T14:08:38;6.20;;;2.83;;
60726;SDS011;46577;49.004;12.120;2023-09-19T14:11:07;4.10;;;1.50;;
60726;SDS011;46577;49.004;12.120;2023-09-19T14:13:33;3.20;;;1.20;;
60726;SDS011;46577;49.004;12.120;2023-09-19T14:16:06;5.13;;;1.20;;
60726;SDS011;46577;49.004;12.120;2023-09-19T14:18:33;3.37;;;1.27;;
60726;SDS011;46577;49.004;12.120;2023-09-19T14:21:05;1.63;;;1.00;;
60726;SDS011;46577;49.004;12.120;2023-09-19T14:23:36;3.57;;;1.10;;
60726;SDS011;46577;49.004;12.120;2023-09-19T14:26:02;2.93;;;1.47;;
60726;SDS011;46577;49.004;12.120;2023-09-19T14:28:28;3.70;;;1.50;;
60726;SDS011;46577;49.004;12.120;2023-09-19T14:30:55;1.00;;;0.87;;
60726;SDS011;46577;49.004;12.120;2023-09-19T14:33:21;5.43;;;1.43;;
60726;SDS011;46577;49.004;12.120;2023-09-19T14:35:47;2.30;;;1.40;;
60726;SDS011;46577;49.004;12.120;2023-09-19T14:38:13;1.90;;;1.50;;
60726;SDS011;46577;49.004;12.120;2023-09-19T14:40:39;1.50;;;1.20;;
60726;SDS011;46577;49.004;12.120;2023-09-19T14:43:06;1.50;;;1.20;;
60726;SDS011;46577;49.004;12.120;2023-09-19T14:45:35;2.37;;;1.80;;
60726;SDS011;46577;49.004;12.120;2023-09-19T14:48:01;1.50;;;1.33;;
60726;SDS011;46577;49.004;12.120;2023-09-19T14:50:30;3.13;;;1.53;;
60726;SDS011;46577;49.004;12.120;2023-09-19T14:52:56;1.60;;;1.30;;
60726;SDS011;46577;49.004;12.120;2023-09-19T14:55:23;2.40;;;1.00;;
60726;SDS011;46577;49.004;12.120;2023-09-19T14:57:49;1.73;;;1.33;;
60726;SDS011;46577;49.004;12.120;2023-09-19T15:00:17;4.13;;;1.37;;
60726;SDS011;46577;49.004;12.120;2023-09-19T15:02:45;1.47;;;1.13;;
60726;SDS011;46577;49.004;12.120;2023-09-19T15:05:13;2.30;;;1.30;;
60726;SDS011;46577;49.004;12.120;2023-09-19T15:07:40;2.60;;;1.40;;
60726;SDS011;46577;49.004;12.120;2023-09-19T15:10:06;2.20;;;1.17;;
60726;SDS011;46577;49.004;12.120;2023-09-19T15:12:35;6.00;;;1.67;;
60726;SDS011;46577;49.004;12.120;2023-09-19T15:15:02;1.70;;;1.10;;
60726;SDS011;46577;49.004;12.120;2023-09-19T15:17:30;3.40;;;1.33;;
60726;SDS011;46577;49.004;12.120;2023-09-19T15:19:56;4.60;;;1.23;;
60726;SDS011;46577;49.004;12.120;2023-09-19T15:22:22;2.47;;;1.67;;
60726;SDS011;46577;49.004;12.120;2023-09-19T15:24:49;0.80;;;0.80;;
60726;SDS011;46577;49.004;12.120;2023-09-19T15:27:16;1.90;;;1.17;;
60726;SDS011;46577;49.004;12.120;2023-09-19T15:29:45;2.97;;;1.50;;
60726;SDS011;46577;49.004;12.120;2023-09-19T15:32:11;2.60;;;0.97;;
60726;SDS011;46577;49.004;12.120;2023-09-19T15:34:37;5.20;;;1.13;;
60726;SDS011;46577;49.004;12.120;2023-09-19T15:37:03;2.63;;;1.10;;
60726;SDS011;46577;49.004;12.120;2023-09-19T15:39:32;2.10;;;1.20;;